»·PEaware :: N118LW KLAX-O22

N118LW :: KLAX-O22

FLIGHT INFORMATION

Flight Status: Arrived
Operator: Privately registered:
United States
More flights under this callsign
Pilot: Lee W. (44)
Aircraft: Unknown
(FA7X)
More flights by this aircraft type
Origin: KLAX Los Angeles Intl
United States
Destination: O22 Columbia
United States
More flights between these airports :: More routes between these airports
Route: +CAST2 EHF CZQ
File this flight plan on PilotEdge
Remarks:
Altitude:
(Current/Filed)
24,000ft
Speed:
(Current/Filed)
450kts
Departed: 16-Jun-13 08:12 AM
Arrived: 16-Jun-13 09:05 AM
Distance/Time
Traveled:
264nm/0:52
Distance/Time
To Go:
Arrived

Flight Plot

Page will automatically refresh every two minutes.

Flight plan parsing failed; only flown route is shown


Map Options




Map Legend


Flown Route
Filed Route
Departure Airport
Arrival Airport
Navaid (VOR, NDB)
Fix

Horizontal Profiles

Position Reports

Time Latitude Longitude Heading Altitude Ground
Speed
16-Jun-13 07:53 33.934298 -118.394352 177 130ft 0kts
16-Jun-13 07:54 33.934298 -118.394352 177 130ft 0kts
16-Jun-13 07:55 33.934298 -118.394352 177 130ft 0kts
16-Jun-13 07:56 33.934298 -118.394352 177 130ft 0kts
16-Jun-13 07:57 33.934298 -118.394352 177 130ft 0kts
16-Jun-13 07:58 33.934298 -118.394352 177 130ft 0kts
16-Jun-13 07:59 33.934298 -118.394352 177 130ft 0kts
16-Jun-13 08:00 33.934298 -118.394352 177 130ft 0kts
16-Jun-13 08:01 33.934298 -118.394352 177 130ft 0kts
16-Jun-13 08:02 33.934298 -118.394352 177 130ft 0kts
16-Jun-13 08:03 33.934298 -118.394352 177 130ft 0kts
16-Jun-13 08:04 33.934298 -118.394352 177 130ft 0kts
16-Jun-13 08:05 33.934298 -118.394352 177 130ft 0kts
16-Jun-13 08:06 33.934279 -118.394350 173 130ft 0kts
16-Jun-13 08:07 33.935132 -118.392882 82 130ft 16kts
16-Jun-13 08:08 33.935508 -118.388940 82 130ft 25kts
16-Jun-13 08:09 33.936019 -118.384070 82 130ft 21kts
16-Jun-13 08:10 33.936506 -118.382830 350 130ft 0kts
16-Jun-13 08:11 33.936529 -118.382835 350 130ft 1kts
16-Jun-13 08:12 33.937222 -118.383741 267 130ft 0kts
16-Jun-13 08:13 33.935957 -118.395876 263 131ft 171kts
16-Jun-13 08:14 33.930079 -118.461444 263 928ft 255kts
16-Jun-13 08:15 33.923869 -118.543019 267 2859ft 261kts
16-Jun-13 08:16 33.921416 -118.619393 267 4872ft 268kts
16-Jun-13 08:17 33.932854 -118.691089 320 6978ft 277kts
16-Jun-13 08:18 33.995058 -118.708228 342 9132ft 286kts
16-Jun-13 08:19 34.052936 -118.698156 30 11123ft 295kts
16-Jun-13 08:20 34.105832 -118.659006 24 13623ft 305kts
16-Jun-13 08:21 34.175388 -118.624297 21 17493ft 431kts
16-Jun-13 08:22 34.259860 -118.615025 359 20997ft 458kts
16-Jun-13 08:23 34.356724 -118.640490 339 23890ft 482kts
16-Jun-13 08:24 34.448362 -118.685020 337 24001ft 478kts
16-Jun-13 08:25 34.553769 -118.737163 337 24053ft 479kts
16-Jun-13 08:26 34.663507 -118.791628 337 24105ft 472kts
16-Jun-13 08:27 34.778584 -118.848919 337 24179ft 471kts
16-Jun-13 08:28 34.902072 -118.895423 344 24188ft 474kts
16-Jun-13 08:29 35.028908 -118.939207 344 24155ft 477kts
16-Jun-13 08:30 35.154667 -118.982768 344 24104ft 482kts
16-Jun-13 08:31 35.255343 -119.017741 344 24089ft 483kts
16-Jun-13 08:32 35.403606 -119.069414 344 24052ft 468kts
16-Jun-13 08:33 35.501361 -119.106635 338 24095ft 459kts
16-Jun-13 08:34 35.608268 -119.159323 337 24090ft 459kts
16-Jun-13 08:35 35.724708 -119.218208 337 24092ft 458kts
16-Jun-13 08:36 35.843725 -119.278492 336 24109ft 468kts
16-Jun-13 08:37 35.963307 -119.339472 337 24103ft 468kts
16-Jun-13 08:38 36.080551 -119.399309 337 24094ft 452kts
16-Jun-13 08:39 36.196570 -119.458745 337 24086ft 455kts
16-Jun-13 08:40 36.312741 -119.518459 337 24080ft 456kts
16-Jun-13 08:41 36.426686 -119.577206 337 24080ft 456kts
16-Jun-13 08:42 36.540703 -119.636288 337 24077ft 454kts
16-Jun-13 08:43 36.648157 -119.692098 336 22024ft 415kts
16-Jun-13 08:44 36.747073 -119.742239 339 19918ft 332kts
16-Jun-13 08:45 36.830857 -119.783764 336 16027ft 349kts
16-Jun-13 08:46 36.920222 -119.830351 336 11171ft 364kts
16-Jun-13 08:47 37.005281 -119.893315 328 6341ft 357kts
16-Jun-13 08:48 37.077990 -119.949021 328 5029ft 279kts
16-Jun-13 08:49 37.138625 -119.995319 328 3699ft 242kts
16-Jun-13 08:50 37.197179 -120.039978 328 3764ft 261kts
16-Jun-13 08:51 37.264788 -120.072603 341 3755ft 261kts
16-Jun-13 08:52 37.329963 -120.109409 328 3700ft 260kts
16-Jun-13 08:53 37.390491 -120.155182 328 3605ft 259kts
16-Jun-13 08:54 37.451101 -120.201310 328 3504ft 258kts
16-Jun-13 08:55 37.509806 -120.246613 328 3451ft 257kts
16-Jun-13 08:56 37.566881 -120.291533 328 3442ft 257kts
16-Jun-13 08:57 37.626583 -120.339259 328 3454ft 257kts
16-Jun-13 08:58 37.686845 -120.387628 328 3443ft 257kts
16-Jun-13 08:59 37.745038 -120.414351 9 3439ft 203kts
16-Jun-13 09:00 37.795449 -120.407096 1 3471ft 187kts
16-Jun-13 09:01 37.843702 -120.412488 336 3462ft 188kts
16-Jun-13 09:02 37.889886 -120.439405 336 3447ft 188kts
16-Jun-13 09:03 37.933656 -120.443890 18 4977ft 158kts
16-Jun-13 09:04 37.972679 -120.426847 11 3513ft 155kts
16-Jun-13 09:05 38.011242 -120.417645 9 2497ft 139kts
16-Jun-13 09:06 38.036333 -120.411770 7 2122ft 15kts
16-Jun-13 09:07 38.032433 -120.413329 190 2122ft 26kts
16-Jun-13 09:08 38.030624 -120.413731 187 2122ft 0kts

Navigation Log

Ident Type
Flight plan parsing failed, navigation log unavailable